KHPN/HPN METAR and TAF weather

Enter ICAO airport designator
Station Type Date Time Source
KHPN METAR 2018/12/19 08:56 UTC NOAA

KHPN 190856Z 32004KT 10SM CLR M06/M11 A3012 RMK AO2 SLP209 T10611111 53008


Station Type Date Time Source
KHPN Decoded METAR 2018/12/19 08:56 UTC NOAA

WHITE PLAINS WESTCHESTER, NY, United States (KHPN) 41-04N 073-42W 121M
Dec 19, 2018 - 03:56 AM EST / 2018.12.19 0856 UTC
Wind: from the NW (320 degrees) at 5 MPH (4 KT):0
Visibility: 10 mile(s):0
Sky conditions: clear
Temperature: 21.0 F (-6.1 C)
Windchill: 14 F (-10 C):1
Dew Point: 12.0 F (-11.1 C)
Relative Humidity: 67%
Pressure (altimeter): 30.12 in. Hg (1019 hPa)
Pressure tendency: 0.02 inches (0.8 hPa) higher than three hours ago
ob: KHPN 190856Z 32004KT 10SM CLR M06/M11 A3012 RMK AO2 SLP209 T10611111 53008
cycle: 9

Station Type Date Time Source
KHPN TAF 2018/12/19 09:40 UTC NOAA

TAF
AMD KHPN 190837Z 1909/2006 30004KT P6SM FEW250
FM191600 26005KT P6SM BKN250
FM192100 23004KT P6SM BKN250
FM200000 VRB03KT P6SM SCT250
AMD NOT SKED


Example: see airport list